createdAt,value
2022-11-15T00:01:53.223Z,13.40
2022-11-15T00:04:38.959Z,13.23
2022-11-15T00:07:53.593Z,13.20
2022-11-15T00:10:31.069Z,13.33
2022-11-15T00:13:16.969Z,13.07
2022-11-15T00:16:03.643Z,13.60
2022-11-15T00:18:51.032Z,12.88
2022-11-15T00:21:37.084Z,11.27
2022-11-15T00:24:23.122Z,12.93
2022-11-15T00:27:08.886Z,11.32
2022-11-15T00:29:55.054Z,13.70
2022-11-15T00:32:41.013Z,13.90
2022-11-15T00:35:26.932Z,14.33
2022-11-15T00:38:12.908Z,14.37
2022-11-15T00:40:58.623Z,13.77
2022-11-15T00:43:44.924Z,13.57
2022-11-15T00:46:30.989Z,14.03
2022-11-15T00:49:16.867Z,15.40
2022-11-15T00:52:03.177Z,15.00
2022-11-15T00:54:49.136Z,15.00
2022-11-15T00:57:34.836Z,12.93
2022-11-15T01:00:20.683Z,15.52
2022-11-15T01:03:06.736Z,14.20
2022-11-15T01:05:52.453Z,14.70
2022-11-15T01:08:41.238Z,15.02
2022-11-15T01:11:27.071Z,16.92
2022-11-15T01:14:13.289Z,15.23
2022-11-15T01:16:59.050Z,17.02
2022-11-15T01:19:45.125Z,12.00
2022-11-15T01:22:31.039Z,13.40
2022-11-15T01:25:17.294Z,13.02
2022-11-15T01:28:02.952Z,16.83
2022-11-15T01:30:48.742Z,13.80
2022-11-15T01:33:36.761Z,15.15
2022-11-15T01:36:23.285Z,14.88
2022-11-15T01:39:09.347Z,14.65
2022-11-15T01:41:55.735Z,13.93
2022-11-15T01:44:45.412Z,14.88
2022-11-15T01:47:46.724Z,14.43
2022-11-15T01:50:34.107Z,14.20
2022-11-15T01:53:22.583Z,14.40
2022-11-15T01:56:12.767Z,14.10
2022-11-15T01:59:02.223Z,12.85
2022-11-15T02:01:48.700Z,14.77
2022-11-15T02:04:38.698Z,15.18
2022-11-15T02:07:24.804Z,14.77
2022-11-15T02:10:19.571Z,12.95
2022-11-15T02:13:05.719Z,14.18
2022-11-15T02:16:14.755Z,14.55
2022-11-15T02:19:34.104Z,13.30
2022-11-15T02:23:09.279Z,14.23
2022-11-15T02:26:33.937Z,15.35
2022-11-15T02:30:15.719Z,12.90
2022-11-15T02:33:28.451Z,13.17
2022-11-15T02:40:22.944Z,12.97
2022-11-15T02:43:35.030Z,12.43
2022-11-15T02:47:14.944Z,13.27
2022-11-15T02:50:07.616Z,12.10
2022-11-15T02:52:54.248Z,13.03
2022-11-15T02:55:47.745Z,13.15
2022-11-15T02:58:51.420Z,12.38
2022-11-15T03:02:08.231Z,12.57
2022-11-15T03:05:30.667Z,14.05
2022-11-15T03:08:38.354Z,12.65
2022-11-15T03:11:24.817Z,12.67
2022-11-15T03:14:30.621Z,14.70
2022-11-15T03:17:34.723Z,12.20
2022-11-15T03:20:20.891Z,12.93
2022-11-15T03:23:10.971Z,14.88
2022-11-15T03:25:59.605Z,13.10
2022-11-15T03:28:51.662Z,13.57
2022-11-15T03:31:50.292Z,13.07
2022-11-15T03:34:54.468Z,14.05
2022-11-15T03:37:53.880Z,13.27
2022-11-15T03:40:42.513Z,14.33
2022-11-15T03:43:55.647Z,11.73
2022-11-15T03:47:07.591Z,13.00
2022-11-15T03:49:58.448Z,13.35
2022-11-15T03:52:47.101Z,13.73
2022-11-15T03:55:34.295Z,13.33
2022-11-15T03:58:20.336Z,13.90
2022-11-15T04:01:06.564Z,13.17
2022-11-15T04:03:52.773Z,13.47
2022-11-15T04:06:38.805Z,14.43
2022-11-15T04:09:25.183Z,13.95
2022-11-15T04:12:10.899Z,14.77
2022-11-15T04:15:17.835Z,14.37
2022-11-15T04:18:03.596Z,14.23
2022-11-15T04:21:07.961Z,13.50
2022-11-15T04:24:05.618Z,13.60
2022-11-15T04:26:51.837Z,12.53
2022-11-15T04:29:37.574Z,13.13
2022-11-15T04:32:23.335Z,12.07
2022-11-15T04:35:09.583Z,12.50
2022-11-15T04:37:56.240Z,15.10
2022-11-15T04:40:42.377Z,20.17
2022-11-15T04:43:29.104Z,17.83
2022-11-15T04:46:15.190Z,18.37
2022-11-15T04:49:00.915Z,20.13
2022-11-15T04:51:46.983Z,17.83
2022-11-15T04:54:33.057Z,17.53
2022-11-15T04:57:19.403Z,16.23
2022-11-15T05:00:07.457Z,11.90
2022-11-15T05:03:11.796Z,12.43
2022-11-15T05:05:59.286Z,14.17
2022-11-15T05:08:45.335Z,15.10
2022-11-15T05:11:31.197Z,12.33
2022-11-15T05:14:17.377Z,13.43
2022-11-15T05:17:03.384Z,11.90
2022-11-15T05:19:49.315Z,11.77
2022-11-15T05:22:35.290Z,10.77
2022-11-15T05:25:21.415Z,12.93
2022-11-15T05:28:07.199Z,11.90
2022-11-15T05:30:53.355Z,13.80
2022-11-15T05:33:40.971Z,12.70
2022-11-15T05:36:35.702Z,12.40
2022-11-15T05:39:21.681Z,11.40
2022-11-15T05:42:12.339Z,13.70
2022-11-15T05:45:00.713Z,11.70
2022-11-15T05:47:47.243Z,10.73
2022-11-15T05:50:34.135Z,10.80
2022-11-15T05:53:23.683Z,10.07
2022-11-15T05:56:10.689Z,11.87
2022-11-15T05:58:59.990Z,10.37
2022-11-15T06:01:47.071Z,11.57
2022-11-15T06:04:33.249Z,13.30
2022-11-15T06:07:19.138Z,13.03
2022-11-15T06:10:05.696Z,11.43
2022-11-15T06:13:02.009Z,12.37
2022-11-15T06:15:47.997Z,14.97
2022-11-15T06:18:37.543Z,11.83
2022-11-15T06:21:23.980Z,13.73
2022-11-15T06:24:12.939Z,13.17
2022-11-15T06:27:00.014Z,11.73
2022-11-15T06:29:46.150Z,13.47
2022-11-15T06:32:32.646Z,12.17
2022-11-15T06:35:18.596Z,11.80
2022-11-15T06:38:07.976Z,12.13
2022-11-15T06:40:54.163Z,11.80
2022-11-15T06:43:40.472Z,11.67
2022-11-15T06:46:26.586Z,11.57
2022-11-15T06:49:12.929Z,12.87
2022-11-15T06:51:58.679Z,12.17
2022-11-15T06:54:44.707Z,12.70
2022-11-15T06:57:30.621Z,12.23
2022-11-15T07:00:18.270Z,13.38
2022-11-15T07:03:04.710Z,11.80
2022-11-15T07:06:01.398Z,14.10
2022-11-15T07:08:51.221Z,11.90
2022-11-15T07:11:37.438Z,15.00
2022-11-15T07:14:23.347Z,12.50
2022-11-15T07:17:09.323Z,12.20
2022-11-15T07:19:55.426Z,12.32
2022-11-15T07:22:42.951Z,11.13
2022-11-15T07:25:29.601Z,10.30
2022-11-15T07:28:15.541Z,12.65
2022-11-15T07:31:06.789Z,13.65
2022-11-15T07:33:52.690Z,11.40
2022-11-15T07:36:38.812Z,13.25
2022-11-15T07:39:25.232Z,13.00
2022-11-15T07:42:29.909Z,11.48
2022-11-15T07:45:16.072Z,11.68
2022-11-15T07:48:02.294Z,12.88
2022-11-15T07:50:48.499Z,13.35
2022-11-15T07:53:34.468Z,12.52
2022-11-15T07:56:21.808Z,11.93
2022-11-15T07:59:07.795Z,11.55
2022-11-15T08:01:53.744Z,11.95
2022-11-15T08:04:39.872Z,13.13
2022-11-15T08:07:26.165Z,11.05
2022-11-15T08:10:13.081Z,11.55
2022-11-15T08:13:04.646Z,12.32
2022-11-15T08:15:54.865Z,10.53
2022-11-15T08:18:43.545Z,10.13
2022-11-15T08:21:29.359Z,12.73
2022-11-15T08:24:15.866Z,11.32
2022-11-15T08:27:01.879Z,10.65
2022-11-15T08:29:49.870Z,10.40
2022-11-15T08:32:35.965Z,9.88
2022-11-15T08:35:26.265Z,10.45
2022-11-15T08:38:15.107Z,10.43
2022-11-15T08:41:04.442Z,8.88
2022-11-15T08:43:50.331Z,10.35
2022-11-15T08:46:36.151Z,7.93
2022-11-15T08:49:22.020Z,9.18
2022-11-15T08:52:07.831Z,10.98
2022-11-15T08:54:53.624Z,10.15
2022-11-15T08:57:39.786Z,10.00
2022-11-15T09:00:25.907Z,9.93
2022-11-15T09:03:11.687Z,8.73
2022-11-15T09:05:58.913Z,7.35
2022-11-15T09:08:48.638Z,8.63
2022-11-15T09:11:35.107Z,7.05
2022-11-15T09:14:20.935Z,7.25
2022-11-15T09:17:10.928Z,7.57
2022-11-15T09:19:56.826Z,7.43
2022-11-15T09:22:42.698Z,6.85
2022-11-15T09:25:29.554Z,7.45
2022-11-15T09:28:15.351Z,7.13
2022-11-15T09:31:03.199Z,8.63
2022-11-15T09:33:49.136Z,7.45
2022-11-15T09:36:35.320Z,7.65
2022-11-15T09:39:21.255Z,6.75
2022-11-15T09:42:25.151Z,6.93
2022-11-15T09:45:38.402Z,7.20
2022-11-15T09:48:54.784Z,6.75
2022-11-15T09:51:48.641Z,7.25
2022-11-15T09:57:19.810Z,7.22
2022-11-15T10:03:40.493Z,7.68
2022-11-15T10:06:15.106Z,7.45
2022-11-15T10:09:19.952Z,7.13
2022-11-15T10:11:50.743Z,6.07
2022-11-15T10:14:28.185Z,6.47
2022-11-15T10:17:26.711Z,7.70
2022-11-15T10:20:23.352Z,8.05
2022-11-15T10:22:56.935Z,7.22
2022-11-15T10:25:32.659Z,6.22
2022-11-15T10:28:30.054Z,6.15
2022-11-15T10:31:00.041Z,5.93
2022-11-15T10:33:40.436Z,6.13
2022-11-15T10:36:26.654Z,6.50
2022-11-15T10:38:58.625Z,7.32
2022-11-15T10:44:32.773Z,6.38
2022-11-15T10:47:28.781Z,6.38
2022-11-15T10:50:28.284Z,5.63
2022-11-15T10:52:56.184Z,6.05
2022-11-15T10:55:30.925Z,6.65
2022-11-15T10:58:30.433Z,6.30
2022-11-15T11:01:23.708Z,5.22
2022-11-15T11:04:11.636Z,4.97
2022-11-15T11:07:21.654Z,6.90
2022-11-15T11:09:59.118Z,5.38
2022-11-15T11:12:34.573Z,5.50
2022-11-15T11:15:14.157Z,5.70
2022-11-15T11:17:57.226Z,5.90
2022-11-15T11:20:46.274Z,6.07
2022-11-15T11:23:14.044Z,6.15
2022-11-15T11:26:08.166Z,5.15
2022-11-15T11:29:29.261Z,5.85
2022-11-15T11:32:37.238Z,5.00
2022-11-15T11:35:43.696Z,6.05
2022-11-15T11:38:39.670Z,6.53
2022-11-15T11:41:46.007Z,5.90
2022-11-15T11:44:44.652Z,5.75
2022-11-15T11:47:18.717Z,5.93
2022-11-15T11:49:55.039Z,5.18
2022-11-15T11:52:35.873Z,5.85
2022-11-15T11:55:16.661Z,5.15
2022-11-15T11:58:22.288Z,5.78
2022-11-15T12:00:56.538Z,6.18
2022-11-15T12:03:40.982Z,5.95
2022-11-15T12:06:52.021Z,7.03
2022-11-15T12:09:35.427Z,5.43
2022-11-15T12:12:31.590Z,6.10
2022-11-15T12:15:16.814Z,5.13
2022-11-15T12:17:45.822Z,5.25
2022-11-15T12:20:34.741Z,6.63
2022-11-15T12:23:20.698Z,5.68
2022-11-15T12:26:03.842Z,5.13
2022-11-15T12:29:09.446Z,5.97
2022-11-15T12:31:42.570Z,5.85
2022-11-15T12:34:44.195Z,5.20
2022-11-15T12:37:59.591Z,6.03
2022-11-15T12:41:05.997Z,5.68
2022-11-15T12:43:44.178Z,6.60
2022-11-15T12:46:24.234Z,6.22
2022-11-15T12:48:54.590Z,5.50
2022-11-15T12:51:43.414Z,5.05
2022-11-15T12:54:22.762Z,6.90
2022-11-15T12:57:25.450Z,5.53
2022-11-15T13:00:02.976Z,5.35
2022-11-15T13:02:48.470Z,6.32
2022-11-15T13:05:56.429Z,6.13
2022-11-15T13:08:44.886Z,5.28
2022-11-15T13:11:45.822Z,5.85
2022-11-15T13:14:42.933Z,6.45
2022-11-15T13:17:32.437Z,6.10
2022-11-15T13:20:24.376Z,6.45
2022-11-15T13:23:13.168Z,5.22
2022-11-15T13:26:20.030Z,5.53
2022-11-15T13:28:53.292Z,6.18
2022-11-15T13:31:38.846Z,5.38
2022-11-15T13:34:50.927Z,6.40
2022-11-15T13:37:37.318Z,5.95
2022-11-15T13:40:28.367Z,4.72
2022-11-15T13:42:56.947Z,5.32
2022-11-15T13:45:25.244Z,6.90
2022-11-15T13:47:57.312Z,5.43
2022-11-15T13:50:30.442Z,5.82
2022-11-15T13:53:00.970Z,5.40
2022-11-15T13:55:30.162Z,5.97
2022-11-15T13:58:10.473Z,6.97
2022-11-15T14:00:44.409Z,5.60
2022-11-15T14:03:35.174Z,5.40
2022-11-15T14:06:17.108Z,4.43
2022-11-15T14:09:11.598Z,6.03
2022-11-15T14:11:50.819Z,5.93
2022-11-15T14:14:24.989Z,4.88
2022-11-15T14:16:57.979Z,6.20
2022-11-15T14:19:36.627Z,5.28
2022-11-15T14:22:31.679Z,5.95
2022-11-15T14:25:17.076Z,5.63
2022-11-15T14:28:05.392Z,5.72
2022-11-15T14:30:32.745Z,6.40
2022-11-15T14:33:00.246Z,5.68
2022-11-15T14:35:27.691Z,6.75
2022-11-15T14:37:55.134Z,6.15
2022-11-15T14:40:23.394Z,6.00
2022-11-15T14:42:51.104Z,7.32
2022-11-15T14:45:22.848Z,5.55
2022-11-15T14:47:50.392Z,6.22
2022-11-15T14:50:22.602Z,6.63
2022-11-15T14:55:27.984Z,5.35
2022-11-15T14:57:56.207Z,5.32
2022-11-15T15:00:24.148Z,6.68
2022-11-15T15:02:54.469Z,6.45
2022-11-15T15:05:34.332Z,6.10
2022-11-15T15:08:02.583Z,6.43
2022-11-15T15:10:42.451Z,5.22
2022-11-15T15:13:21.951Z,5.50
2022-11-15T15:15:50.988Z,6.63
2022-11-15T15:18:19.170Z,6.60
2022-11-15T15:20:56.649Z,6.72
2022-11-15T15:23:26.657Z,6.18
2022-11-15T15:26:18.980Z,6.22
2022-11-15T15:28:46.842Z,5.47
2022-11-15T15:31:14.323Z,6.65
2022-11-15T15:33:41.920Z,5.40
2022-11-15T15:36:13.445Z,6.75
2022-11-15T15:38:42.466Z,8.23
2022-11-15T15:41:12.031Z,7.22
2022-11-15T15:43:40.281Z,7.50
2022-11-15T15:46:13.759Z,6.55
2022-11-15T15:48:41.782Z,5.93
2022-11-15T15:51:16.933Z,6.30
2022-11-15T15:53:47.847Z,7.63
2022-11-15T15:56:15.481Z,6.45
2022-11-15T15:58:42.996Z,6.55
2022-11-15T16:01:10.452Z,6.93
2022-11-15T16:03:37.918Z,7.05
2022-11-15T16:06:06.184Z,7.30
2022-11-15T16:08:47.758Z,6.75
2022-11-15T16:11:20.997Z,6.80
2022-11-15T16:13:48.363Z,6.88
2022-11-15T16:16:16.199Z,7.38
2022-11-15T16:18:43.557Z,7.13
2022-11-15T16:21:10.922Z,7.70
2022-11-15T16:23:38.349Z,7.45
2022-11-15T16:26:31.581Z,7.70
2022-11-15T16:28:59.603Z,7.05
2022-11-15T16:31:26.931Z,6.25
2022-11-15T16:33:54.313Z,8.48
2022-11-15T16:36:30.546Z,7.90
2022-11-15T16:38:59.568Z,6.80
2022-11-15T16:41:27.498Z,7.25
2022-11-15T16:43:54.886Z,7.18
2022-11-15T16:46:25.904Z,6.80
2022-11-15T16:48:54.351Z,6.65
2022-11-15T16:51:22.564Z,7.45
2022-11-15T16:53:50.446Z,6.80
2022-11-15T16:56:25.690Z,6.13
2022-11-15T16:58:54.895Z,7.32
2022-11-15T17:01:28.178Z,6.22
2022-11-15T17:03:56.738Z,7.43
2022-11-15T17:06:26.125Z,7.43
2022-11-15T17:08:53.555Z,6.85
2022-11-15T17:11:22.658Z,7.30
2022-11-15T17:13:50.089Z,7.57
2022-11-15T17:16:18.410Z,7.43
2022-11-15T17:18:50.465Z,7.22
2022-11-15T17:23:47.014Z,7.50
2022-11-15T17:26:34.166Z,7.07
2022-11-15T17:29:04.876Z,6.60
2022-11-15T17:31:33.844Z,7.32
2022-11-15T17:34:02.861Z,9.55
2022-11-15T17:36:30.859Z,7.22
2022-11-15T17:38:59.887Z,6.93
2022-11-15T17:41:28.930Z,8.80
2022-11-15T17:44:00.628Z,6.80
2022-11-15T17:46:28.802Z,6.35
2022-11-15T17:48:57.596Z,6.93
2022-11-15T17:51:25.302Z,7.88
2022-11-15T17:53:53.520Z,8.20
2022-11-15T17:56:25.487Z,7.60
2022-11-15T17:58:58.627Z,7.10
2022-11-15T18:01:31.799Z,7.70
2022-11-15T18:04:02.026Z,8.00
2022-11-15T18:06:31.977Z,7.43
2022-11-15T18:08:59.910Z,8.13
2022-11-15T18:11:30.500Z,7.18
2022-11-15T18:14:03.620Z,6.68
2022-11-15T18:16:32.946Z,7.22
2022-11-15T18:19:00.681Z,8.27
2022-11-15T18:21:30.324Z,6.82
2022-11-15T18:24:00.155Z,6.70
2022-11-15T18:26:29.297Z,6.70
2022-11-15T18:29:04.159Z,7.50
2022-11-15T18:31:31.851Z,6.47
2022-11-15T18:34:00.474Z,7.88
2022-11-15T18:36:30.260Z,7.70
2022-11-15T18:39:02.944Z,7.82
2022-11-15T18:41:34.015Z,7.28
2022-11-15T18:44:02.727Z,7.32
2022-11-15T18:46:32.375Z,7.15
2022-11-15T18:49:01.408Z,6.90
2022-11-15T18:51:31.152Z,6.40
2022-11-15T18:54:00.807Z,7.50
2022-11-15T18:56:30.208Z,7.90
2022-11-15T18:58:59.544Z,6.50
2022-11-15T19:01:29.754Z,6.37
2022-11-15T19:03:58.448Z,6.63
2022-11-15T19:06:29.284Z,6.97
2022-11-15T19:08:58.942Z,8.00
2022-11-15T19:11:31.280Z,7.80
2022-11-15T19:14:03.195Z,6.80
2022-11-15T19:16:33.379Z,7.00
2022-11-15T19:19:07.905Z,7.17
2022-11-15T19:21:35.386Z,6.43
2022-11-15T19:24:03.005Z,6.90
2022-11-15T19:26:30.747Z,7.97
2022-11-15T19:29:00.542Z,5.83
2022-11-15T19:31:29.472Z,6.97
2022-11-15T19:33:59.499Z,7.40
2022-11-15T19:36:35.200Z,5.97
2022-11-15T19:39:08.140Z,6.13
2022-11-15T19:41:38.618Z,6.17
2022-11-15T19:44:06.945Z,6.87
2022-11-15T19:46:35.150Z,5.47
2022-11-15T19:49:02.491Z,6.33
2022-11-15T19:51:31.122Z,6.37
2022-11-15T19:54:01.470Z,5.67
2022-11-15T19:56:28.910Z,5.87
2022-11-15T19:58:56.848Z,6.00
2022-11-15T20:01:27.040Z,6.13
2022-11-15T20:03:55.770Z,6.90
2022-11-15T20:06:28.536Z,6.63
2022-11-15T20:08:56.260Z,5.13
2022-11-15T20:11:24.146Z,6.57
2022-11-15T20:13:51.894Z,6.43
2022-11-15T20:16:21.731Z,6.63
2022-11-15T20:18:50.450Z,6.47
2022-11-15T20:21:18.016Z,6.37
2022-11-15T20:23:48.371Z,4.63
2022-11-15T20:26:16.315Z,6.10
2022-11-15T20:28:44.861Z,5.07
2022-11-15T20:31:12.659Z,5.50
2022-11-15T20:33:40.559Z,5.03
2022-11-15T20:36:11.428Z,5.83
2022-11-15T20:38:39.407Z,4.33
2022-11-15T20:41:07.280Z,5.00
2022-11-15T20:43:34.891Z,4.67
2022-11-15T20:46:02.337Z,6.30
2022-11-15T20:48:29.973Z,4.47
2022-11-15T20:51:06.570Z,4.07
2022-11-15T20:53:35.201Z,4.70
2022-11-15T20:56:14.615Z,5.03
2022-11-15T20:58:43.351Z,4.60
2022-11-15T21:01:13.823Z,5.60
2022-11-15T21:03:41.356Z,6.37
2022-11-15T21:06:09.535Z,6.30
2022-11-15T21:08:55.401Z,4.70
2022-11-15T21:11:41.360Z,5.93
2022-11-15T21:14:09.741Z,4.43
2022-11-15T21:16:38.224Z,5.60
2022-11-15T21:19:06.797Z,4.80
2022-11-15T21:21:35.939Z,5.43
2022-11-15T21:24:08.435Z,5.33
2022-11-15T21:26:36.883Z,5.40
2022-11-15T21:29:04.451Z,5.47
2022-11-15T21:31:32.833Z,4.80
2022-11-15T21:34:04.097Z,5.53
2022-11-15T21:36:31.518Z,5.38
2022-11-15T21:38:58.856Z,6.10
2022-11-15T21:41:26.271Z,5.83
2022-11-15T21:44:00.916Z,5.50
2022-11-15T21:46:29.524Z,4.63
2022-11-15T21:48:57.866Z,4.97
2022-11-15T21:51:25.761Z,5.03
2022-11-15T21:53:56.745Z,4.77
2022-11-15T21:56:25.785Z,5.63
2022-11-15T21:58:54.210Z,5.33
2022-11-15T22:01:44.395Z,5.33
2022-11-15T22:04:12.278Z,5.43
2022-11-15T22:06:39.860Z,3.77
2022-11-15T22:09:07.719Z,4.90
2022-11-15T22:11:35.464Z,4.80
2022-11-15T22:14:03.288Z,4.90
2022-11-15T22:16:31.437Z,4.40
2022-11-15T22:18:59.438Z,4.43
2022-11-15T22:21:26.846Z,4.97
2022-11-15T22:23:54.248Z,5.17
2022-11-15T22:26:23.861Z,4.97
2022-11-15T22:28:52.112Z,3.70
2022-11-15T22:31:19.598Z,4.33
2022-11-15T22:33:47.124Z,4.33
2022-11-15T22:36:14.813Z,4.13
2022-11-15T22:38:44.738Z,4.10
2022-11-15T22:41:12.354Z,4.90
2022-11-15T22:43:40.094Z,4.33
2022-11-15T22:46:07.554Z,5.37
2022-11-15T22:48:37.139Z,4.67
2022-11-15T22:51:05.708Z,4.17
2022-11-15T22:53:33.014Z,4.80
2022-11-15T22:56:03.055Z,4.37
2022-11-15T22:58:31.974Z,4.63
2022-11-15T23:01:01.982Z,3.83
2022-11-15T23:03:30.597Z,4.07
2022-11-15T23:06:02.827Z,3.63
2022-11-15T23:08:30.618Z,4.77
2022-11-15T23:11:22.422Z,4.73
2022-11-15T23:13:51.907Z,4.47
2022-11-15T23:16:22.547Z,4.37
2022-11-15T23:18:52.016Z,4.63
2022-11-15T23:21:55.305Z,4.73
2022-11-15T23:24:23.601Z,3.77
2022-11-15T23:26:56.292Z,3.33
2022-11-15T23:29:25.287Z,4.30
2022-11-15T23:32:12.873Z,4.13
2022-11-15T23:34:45.170Z,4.07
2022-11-15T23:37:14.691Z,3.47
2022-11-15T23:39:42.116Z,3.83
2022-11-15T23:42:19.929Z,3.60
2022-11-15T23:44:50.552Z,3.70
2022-11-15T23:47:19.433Z,3.77
2022-11-15T23:49:46.924Z,3.90
2022-11-15T23:52:15.600Z,3.43
2022-11-15T23:54:43.468Z,4.00
2022-11-15T23:57:12.561Z,4.10
2022-11-15T23:59:43.749Z,3.80
